Time;durP1;ratioP1;P1;durP2;ratioP2;P2;SDS_P1;SDS_P2;PMS_P1;PMS_P2;Temp;Humidity;BMP_temperature;BMP_pressure;BME280_temperature;BME280_humidity;BME280_pressure;Samples;Min_cycle;Max_cycle;Signal;HPM_P1;HPM_P2
2020/12/11 00:00:51;;;;;;;121.30;62.15;;;;;;;0.72;77.63;99655.09;126706;1098;23568;-76
2020/12/11 00:03:20;;;;;;;114.00;62.27;;;;;;;0.75;77.81;99654.81;126762;1098;26795;-73
2020/12/11 00:05:49;;;;;;;106.52;57.17;;;;;;;0.80;77.86;99657.89;126685;1099;23785;-76
2020/12/11 00:08:20;;;;;;;121.82;57.35;;;;;;;0.78;77.79;99652.66;126679;1099;23484;-77
2020/12/11 00:10:48;;;;;;;116.10;61.30;;;;;;;0.81;77.89;99655.08;126657;1098;27628;-75
2020/12/11 00:13:17;;;;;;;97.62;56.55;;;;;;;0.83;77.43;99659.44;126696;1099;24930;-77
2020/12/11 00:15:45;;;;;;;103.83;56.70;;;;;;;0.81;77.76;99659.58;126640;1098;23332;-75
2020/12/11 00:18:14;;;;;;;99.58;53.58;;;;;;;0.79;77.59;99664.24;126673;1098;23324;-76
2020/12/11 00:20:42;;;;;;;105.37;51.58;;;;;;;0.76;77.40;99656.49;126762;1098;26865;-75
2020/12/11 00:23:10;;;;;;;122.17;66.82;;;;;;;0.70;77.57;99667.80;126738;1098;23369;-75
2020/12/11 00:25:38;;;;;;;108.85;57.25;;;;;;;0.68;77.40;99667.11;126726;1098;23427;-75
2020/12/11 00:28:06;;;;;;;113.47;58.42;;;;;;;0.69;77.69;99666.97;126688;1098;23386;-75
2020/12/11 00:30:34;;;;;;;111.40;58.25;;;;;;;0.71;77.81;99658.78;126761;1098;23328;-75
2020/12/11 00:33:02;;;;;;;103.72;52.98;;;;;;;0.73;77.70;99667.53;126680;1098;25076;-74
2020/12/11 00:35:30;;;;;;;99.62;51.45;;;;;;;0.72;77.24;99671.20;126679;1098;23346;-75
2020/12/11 00:37:58;;;;;;;93.22;51.63;;;;;;;0.67;77.20;99676.16;126685;1099;23483;-74
2020/12/11 00:40:26;;;;;;;95.32;53.98;;;;;;;0.66;77.53;99674.45;126725;1098;26423;-74
2020/12/11 00:43:09;;;;;;;90.28;50.75;;;;;;;0.64;77.30;99679.12;126736;1099;23332;-75
2020/12/11 00:45:38;;;;;;;96.22;50.45;;;;;;;0.65;77.54;99675.46;126795;1098;26817;-74
2020/12/11 00:48:07;;;;;;;109.00;53.08;;;;;;;0.66;77.65;99677.14;126751;1098;23382;-74
2020/12/11 00:50:35;;;;;;;84.67;42.98;;;;;;;0.61;77.41;99678.41;126715;1099;23321;-74
2020/12/11 00:53:04;;;;;;;103.00;51.42;;;;;;;0.57;77.41;99679.69;126680;1099;23339;-74
2020/12/11 00:55:33;;;;;;;89.58;48.10;;;;;;;0.57;77.86;99679.69;126693;1099;23366;-75
2020/12/11 00:58:01;;;;;;;90.67;47.73;;;;;;;0.59;77.82;99669.66;126711;1098;23445;-75
2020/12/11 01:00:29;;;;;;;88.67;49.08;;;;;;;0.60;77.93;99660.63;126700;1098;23380;-77
2020/12/11 01:02:57;;;;;;;87.92;48.48;;;;;;;0.61;77.86;99658.78;126426;1098;26449;-76
2020/12/11 01:05:25;;;;;;;95.55;51.77;;;;;;;0.59;77.85;99656.23;126731;1099;23377;-74
2020/12/11 01:07:54;;;;;;;85.50;50.28;;;;;;;0.59;77.84;99658.92;126692;1098;25012;-74
2020/12/11 01:10:22;;;;;;;83.40;49.58;;;;;;;0.57;77.64;99662.75;126696;1098;23386;-75
2020/12/11 01:12:50;;;;;;;137.40;70.65;;;;;;;0.55;77.75;99665.56;126690;1099;23811;-75
2020/12/11 01:15:18;;;;;;;101.72;51.77;;;;;;;0.50;77.59;99659.80;126741;1098;23340;-76
2020/12/11 01:17:46;;;;;;;97.30;51.15;;;;;;;0.49;77.59;99655.44;126751;1098;23337;-75
2020/12/11 01:20:15;;;;;;;91.28;50.78;;;;;;;0.51;77.70;99653.45;126745;1098;23339;-76
2020/12/11 01:22:45;;;;;;;90.12;47.43;;;;;;;0.53;77.73;99659.50;126692;1098;23435;-76
2020/12/11 01:25:14;;;;;;;92.57;47.85;;;;;;;0.52;77.79;99665.87;126723;1098;24860;-74
2020/12/11 01:27:42;;;;;;;88.62;51.15;;;;;;;0.51;77.74;99664.19;126733;1098;27846;-75
2020/12/11 01:30:10;;;;;;;90.87;51.65;;;;;;;0.50;77.76;99664.33;126793;1098;25013;-74
2020/12/11 01:32:38;;;;;;;90.60;51.10;;;;;;;0.50;77.83;99665.16;126672;1098;26285;-74
2020/12/11 01:35:07;;;;;;;85.07;47.73;;;;;;;0.51;77.77;99653.45;126716;1098;26826;-74
2020/12/11 01:37:35;;;;;;;85.87;47.37;;;;;;;0.53;77.87;99656.81;126758;1098;23439;-75
2020/12/11 01:40:05;;;;;;;101.87;53.42;;;;;;;0.51;77.97;99661.51;126629;1098;27938;-76
2020/12/11 01:42:33;;;;;;;91.82;51.28;;;;;;;0.50;77.86;99662.48;126704;1098;24961;-75
2020/12/11 01:45:03;;;;;;;96.47;51.87;;;;;;;0.52;77.95;99663.19;126685;1098;23340;-75
2020/12/11 01:47:39;;;;;;;95.30;49.63;;;;;;;0.53;78.06;99653.29;126721;1098;23382;-75
2020/12/11 01:50:18;;;;;;;90.53;48.87;;;;;;;0.52;77.76;99660.50;126723;1098;23425;-75
2020/12/11 01:52:48;;;;;;;94.95;52.45;;;;;;;0.52;77.97;99660.50;126735;1098;23328;-75
2020/12/11 01:55:16;;;;;;;87.27;50.60;;;;;;;0.52;77.77;99665.03;126732;1098;23382;-75
2020/12/11 01:58:00;;;;;;;94.47;51.70;;;;;;;0.48;77.87;99659.09;126717;1098;23380;-75
2020/12/11 02:00:29;;;;;;;88.22;49.13;;;;;;;0.47;77.89;99660.10;126713;1099;27510;-76
2020/12/11 02:03:06;;;;;;;88.10;48.40;;;;;;;0.46;77.88;99654.87;126716;1098;23392;-76
2020/12/11 02:05:34;;;;;;;83.42;49.73;;;;;;;0.43;77.70;99650.64;126738;1098;23324;-75
2020/12/11 02:08:03;;;;;;;91.90;50.98;;;;;;;0.42;77.99;99646.25;126719;1098;23431;-75
2020/12/11 02:10:32;;;;;;;100.02;55.50;;;;;;;0.43;77.88;99647.09;126706;1099;23383;-76
2020/12/11 02:13:07;;;;;;;93.47;53.60;;;;;;;0.42;78.04;99648.09;126699;1098;23544;-75
2020/12/11 02:15:36;;;;;;;97.78;54.42;;;;;;;0.43;78.09;99647.95;126705;1098;23340;-75
2020/12/11 02:18:04;;;;;;;85.87;53.30;;;;;;;0.45;78.04;99654.03;126715;1098;23366;-76
2020/12/11 02:20:32;;;;;;;89.55;50.43;;;;;;;0.48;77.91;99647.52;126696;1098;23445;-76
2020/12/11 02:23:01;;;;;;;87.85;51.70;;;;;;;0.51;78.09;99647.22;126677;1098;23331;-76
2020/12/11 02:25:29;;;;;;;93.62;51.83;;;;;;;0.50;78.10;99643.70;126728;1098;28069;-75
2020/12/11 02:27:57;;;;;;;88.62;50.58;;;;;;;0.51;78.12;99634.67;126706;1098;26375;-76
2020/12/11 02:30:25;;;;;;;97.90;52.48;;;;;;;0.52;78.08;99644.40;126721;1098;26808;-76
2020/12/11 02:32:53;;;;;;;91.08;52.48;;;;;;;0.52;78.15;99633.66;126683;1098;26405;-75
2020/12/11 02:35:23;;;;;;;93.00;51.42;;;;;;;0.51;78.15;99633.80;126749;1098;23328;-76
2020/12/11 02:37:51;;;;;;;88.62;48.75;;;;;;;0.49;77.77;99627.73;126736;1098;23398;-75
2020/12/11 02:40:20;;;;;;;106.03;57.67;;;;;;;0.50;78.16;99637.48;126693;1098;23325;-76
2020/12/11 02:42:49;;;;;;;92.03;53.83;;;;;;;0.50;78.16;99627.59;126707;1098;23382;-75
2020/12/11 02:45:17;;;;;;;96.72;51.58;;;;;;;0.52;78.49;99636.34;126629;1098;23437;-75
2020/12/11 02:47:45;;;;;;;95.10;49.35;;;;;;;0.53;78.38;99627.29;126710;1098;23328;-75
2020/12/11 02:50:16;;;;;;;98.15;50.65;;;;;;;0.51;78.17;99620.38;126748;1098;26471;-75
2020/12/11 02:52:44;;;;;;;87.90;49.95;;;;;;;0.50;78.20;99619.55;126805;1098;23359;-75
2020/12/11 02:55:13;;;;;;;96.92;49.08;;;;;;;0.50;78.30;99618.70;126699;1098;23393;-74
2020/12/11 02:57:43;;;;;;;83.82;45.25;;;;;;;0.48;78.19;99615.32;126843;1099;23496;-75
2020/12/11 03:00:11;;;;;;;83.23;48.03;;;;;;;0.45;77.68;99619.14;126738;1098;23351;-74
2020/12/11 03:02:39;;;;;;;83.70;47.30;;;;;;;0.45;78.21;99619.14;126770;1098;23382;-75
2020/12/11 03:05:07;;;;;;;91.75;51.70;;;;;;;0.46;78.16;99617.30;126746;1099;23367;-75
2020/12/11 03:07:35;;;;;;;96.02;52.83;;;;;;;0.46;78.10;99628.88;126785;1098;24980;-75
2020/12/11 03:10:04;;;;;;;91.00;52.90;;;;;;;0.45;78.08;99624.52;126319;1098;23387;-76
2020/12/11 03:12:33;;;;;;;99.10;52.13;;;;;;;0.43;78.17;99622.94;126650;1099;28017;-75
2020/12/11 03:15:02;;;;;;;90.50;47.98;;;;;;;0.42;77.91;99627.47;126703;1098;27945;-76
2020/12/11 03:17:31;;;;;;;96.12;51.68;;;;;;;0.41;78.00;99623.11;126697;1099;23325;-76
2020/12/11 03:19:59;;;;;;;78.57;45.20;;;;;;;0.37;77.75;99622.53;126734;1099;26950;-75
2020/12/11 03:22:27;;;;;;;92.78;48.15;;;;;;;0.34;77.78;99620.16;126788;1098;23469;-75
2020/12/11 03:24:55;;;;;;;86.20;50.65;;;;;;;0.35;78.18;99615.62;126660;1098;23389;-77
2020/12/11 03:27:23;;;;;;;86.97;49.42;;;;;;;0.36;78.26;99614.63;126671;1098;23533;-77
2020/12/11 03:29:52;;;;;;;96.65;50.48;;;;;;;0.36;78.29;99612.81;126709;1098;26408;-75
2020/12/11 03:32:20;;;;;;;85.70;46.10;;;;;;;0.38;78.21;99618.01;126735;1099;23533;-75
2020/12/11 03:34:48;;;;;;;93.62;49.93;;;;;;;0.36;78.43;99614.63;126649;1099;26929;-74
2020/12/11 03:37:17;;;;;;;95.10;52.13;;;;;;;0.38;78.29;99618.01;126789;1098;27932;-76
2020/12/11 03:39:45;;;;;;;97.90;50.23;;;;;;;0.37;78.10;99619.85;126687;1098;27840;-75
2020/12/11 03:42:13;;;;;;;96.75;50.48;;;;;;;0.37;78.44;99616.33;126734;1098;23447;-75
2020/12/11 03:44:41;;;;;;;94.28;52.67;;;;;;;0.36;78.31;99611.94;126768;1098;23381;-74
2020/12/11 03:47:10;;;;;;;100.57;52.97;;;;;;;0.34;78.30;99604.05;126759;1098;26799;-75
2020/12/11 03:49:38;;;;;;;100.00;53.90;;;;;;;0.35;78.51;99613.78;126796;1098;23320;-75
2020/12/11 03:52:06;;;;;;;108.67;54.27;;;;;;;0.39;78.04;99611.67;126707;1098;23329;-75
2020/12/11 03:54:34;;;;;;;88.15;47.48;;;;;;;0.38;78.17;99605.46;126781;1098;23533;-75
2020/12/11 03:57:02;;;;;;;94.07;53.42;;;;;;;0.39;78.42;99611.67;126779;1098;23469;-75
2020/12/11 03:59:31;;;;;;;89.57;51.67;;;;;;;0.40;78.47;99608.81;126765;1098;27939;-75
2020/12/11 04:01:59;;;;;;;85.20;48.20;;;;;;;0.39;78.31;99607.14;126767;1098;28238;-74
2020/12/11 04:04:27;;;;;;;82.93;44.00;;;;;;;0.38;78.36;99601.91;126673;1098;23396;-75
2020/12/11 04:06:56;;;;;;;88.65;48.83;;;;;;;0.38;78.37;99605.46;126701;1098;23473;-75
2020/12/11 04:09:24;;;;;;;96.30;49.73;;;;;;;0.37;78.11;99608.28;126689;1099;23428;-75
2020/12/11 04:11:52;;;;;;;93.42;50.88;;;;;;;0.36;78.30;99606.57;126756;1098;25054;-75
2020/12/11 04:14:20;;;;;;;98.00;51.73;;;;;;;0.38;78.37;99605.46;126725;1099;23382;-72
2020/12/11 04:16:50;;;;;;;91.35;52.83;;;;;;;0.44;78.78;99608.55;126766;1098;26436;-75
2020/12/11 04:19:18;;;;;;;94.50;52.38;;;;;;;0.43;78.29;99609.52;126690;1098;23410;-75
2020/12/11 04:21:56;;;;;;;100.97;57.78;;;;;;;0.42;78.50;99600.63;126681;1098;23394;-75
2020/12/11 04:24:24;;;;;;;102.80;58.05;;;;;;;0.43;78.63;99607.70;126657;1098;23346;-75
2020/12/11 04:26:52;;;;;;;91.90;51.90;;;;;;;0.43;78.32;99594.30;126714;1098;24824;-75
2020/12/11 04:29:21;;;;;;;94.60;56.05;;;;;;;0.44;78.42;99604.02;126815;1098;26821;-75
2020/12/11 04:31:58;;;;;;;98.35;50.88;;;;;;;0.45;78.37;99602.17;126678;1098;23547;-75
2020/12/11 04:34:27;;;;;;;99.50;61.02;;;;;;;0.44;78.35;99595.97;126675;1098;26897;-75
2020/12/11 04:36:57;;;;;;;100.40;57.65;;;;;;;0.47;78.42;99594.83;126731;1098;23376;-75
2020/12/11 04:39:26;;;;;;;94.97;50.70;;;;;;;0.48;78.62;99600.05;126726;1098;27777;-75
2020/12/11 04:41:54;;;;;;;86.65;48.15;;;;;;;0.47;78.30;99610.92;126720;1098;26314;-75
2020/12/11 04:44:22;;;;;;;95.57;53.65;;;;;;;0.47;78.29;99603.75;126738;1099;26484;-75
2020/12/11 04:46:51;;;;;;;93.33;55.97;;;;;;;0.47;78.42;99601.06;126710;1098;23382;-75
2020/12/11 04:49:19;;;;;;;91.70;57.50;;;;;;;0.45;78.21;99603.05;126669;1098;23364;-76
2020/12/11 04:51:50;;;;;;;108.37;61.85;;;;;;;0.43;78.09;99602.34;126777;1098;28104;-75
2020/12/11 04:54:21;;;;;;;95.80;54.65;;;;;;;0.41;78.05;99609.69;126734;1098;23339;-75
2020/12/11 04:56:51;;;;;;;107.07;61.00;;;;;;;0.38;78.40;99605.46;126720;1098;23263;-75
2020/12/11 04:59:21;;;;;;;98.82;58.75;;;;;;;0.41;78.27;99609.69;126700;1098;23393;-74
2020/12/11 05:01:49;;;;;;;103.83;56.20;;;;;;;0.39;78.35;99600.94;126716;1098;23390;-75
2020/12/11 05:04:18;;;;;;;105.37;56.33;;;;;;;0.40;78.40;99618.71;126699;1098;26458;-75
2020/12/11 05:06:46;;;;;;;107.65;56.77;;;;;;;0.40;78.50;99608.81;126765;1098;23336;-75
2020/12/11 05:09:22;;;;;;;112.10;61.90;;;;;;;0.38;78.65;99615.33;126700;1098;23382;-75
2020/12/11 05:11:51;;;;;;;106.92;60.45;;;;;;;0.36;78.25;99614.63;126710;1098;24773;-76
2020/12/11 05:14:26;;;;;;;116.50;61.50;;;;;;;0.33;78.52;99610.40;126649;1098;23317;-76
2020/12/11 05:17:06;;;;;;;123.95;63.15;;;;;;;0.32;78.24;99615.89;126746;1098;23502;-76
2020/12/11 05:19:51;;;;;;;279.82;121.95;;;;;;;0.29;78.61;99614.36;126683;1098;24924;-76
2020/12/11 05:22:24;;;;;;;360.57;150.60;;;;;;;0.28;78.47;99614.48;126748;1099;23442;-77
2020/12/11 05:24:56;;;;;;;189.47;83.17;;;;;;;0.30;78.90;99615.20;126708;1098;23398;-76
2020/12/11 05:27:30;;;;;;;142.25;62.65;;;;;;;0.31;78.51;99628.47;126762;1098;23577;-75
2020/12/11 05:30:19;;;;;;;114.00;59.18;;;;;;;0.30;78.80;99626.80;126755;1098;28053;-75
2020/12/11 05:32:52;;;;;;;124.02;60.90;;;;;;;0.29;78.70;99622.41;126414;1098;23384;-75
2020/12/11 05:35:28;;;;;;;435.43;175.30;;;;;;;0.29;78.75;99621.56;126655;1098;23431;-75
2020/12/11 05:38:03;;;;;;;311.10;129.07;;;;;;;0.30;78.73;99624.11;126715;1098;23403;-76
2020/12/11 05:40:38;;;;;;;196.32;90.55;;;;;;;0.32;79.05;99616.77;126825;1098;23533;-76
2020/12/11 05:43:19;;;;;;;119.70;59.80;;;;;;;0.36;78.63;99611.94;126783;1098;23476;-76
2020/12/11 05:45:55;;;;;;;118.25;56.90;;;;;;;0.42;78.83;99614.05;126746;1099;23395;-75
2020/12/11 05:48:39;;;;;;;149.40;67.20;;;;;;;0.47;78.88;99616.30;126786;1098;23533;-74
2020/12/11 05:51:16;;;;;;;132.53;60.23;;;;;;;0.49;79.04;99609.81;126724;1098;23325;-74
2020/12/11 05:53:44;;;;;;;227.00;98.42;;;;;;;0.52;79.03;99611.36;126730;1098;23333;-74
2020/12/11 05:56:13;;;;;;;136.75;64.32;;;;;;;0.52;78.85;99608.67;126645;1098;26780;-74
2020/12/11 05:58:42;;;;;;;122.98;60.78;;;;;;;0.51;78.67;99610.52;126736;1099;26854;-75
2020/12/11 06:01:18;;;;;;;137.82;65.37;;;;;;;0.51;78.68;99607.83;126713;1098;23405;-75
2020/12/11 06:03:47;;;;;;;136.95;63.30;;;;;;;0.54;78.67;99602.16;126811;1098;26433;-76
2020/12/11 06:06:16;;;;;;;149.53;68.75;;;;;;;0.59;78.65;99610.61;126811;1099;26555;-77
2020/12/11 06:08:45;;;;;;;140.75;63.92;;;;;;;0.62;78.87;99609.50;126742;1098;23401;-78
2020/12/11 06:11:21;;;;;;;146.50;64.77;;;;;;;0.63;78.59;99613.02;126658;1098;24991;-74
2020/12/11 06:13:56;;;;;;;143.15;70.03;;;;;;;0.64;78.86;99614.70;126719;1098;25519;-75
2020/12/11 06:16:26;;;;;;;132.30;66.80;;;;;;;0.65;78.49;99611.04;126776;1098;23480;-75
2020/12/11 06:19:00;;;;;;;142.75;69.95;;;;;;;0.63;78.66;99607.66;126600;1098;23383;-76
2020/12/11 06:21:30;;;;;;;123.65;61.85;;;;;;;0.64;78.64;99612.02;126675;1098;23394;-77
2020/12/11 06:24:00;;;;;;;125.60;59.63;;;;;;;0.62;78.45;99604.13;126713;1098;23338;-74
2020/12/11 06:26:28;;;;;;;119.57;61.08;;;;;;;0.59;78.35;99615.98;126633;1098;23325;-75
2020/12/11 06:28:56;;;;;;;99.10;52.67;;;;;;;0.57;78.59;99615.27;126650;1098;23437;-75
2020/12/11 06:31:24;;;;;;;95.83;54.08;;;;;;;0.58;78.75;99600.05;126672;1098;27177;-75
2020/12/11 06:33:56;;;;;;;99.23;53.70;;;;;;;0.57;78.60;99596.48;126693;1098;23491;-74
2020/12/11 06:36:26;;;;;;;93.40;49.67;;;;;;;0.56;78.67;99599.34;126697;1098;23336;-76
2020/12/11 06:38:57;;;;;;;85.00;46.33;;;;;;;0.54;78.68;99594.11;126641;1098;26533;-79
2020/12/11 06:41:27;;;;;;;93.52;50.12;;;;;;;0.56;79.05;99597.50;126526;1099;27783;-74
2020/12/11 06:43:59;;;;;;;88.92;50.35;;;;;;;0.57;78.69;99599.17;126708;1098;23358;-75
2020/12/11 06:46:28;;;;;;;84.63;45.97;;;;;;;0.62;79.07;99604.13;126776;1098;23325;-74
2020/12/11 06:49:19;;;;;;;101.38;49.67;;;;;;;0.64;78.83;99610.20;126768;1098;23366;-74
2020/12/11 06:51:47;;;;;;;86.67;44.25;;;;;;;0.61;78.83;99603.27;126771;1098;23390;-76
2020/12/11 06:54:16;;;;;;;106.70;54.90;;;;;;;0.61;78.92;99602.42;126796;1098;26405;-74
2020/12/11 06:56:48;;;;;;;97.27;47.83;;;;;;;0.64;78.60;99606.64;126650;1098;25012;-74
2020/12/11 06:59:27;;;;;;;;;;;;;;;0.61;78.74;99622.05;126535;1100;24805;-77
2020/12/11 07:02:17;;;;;;;167.30;72.50;;;;;;;0.61;78.71;99622.05;126647;1098;24483;-75
2020/12/11 07:04:50;;;;;;;145.70;75.15;;;;;;;0.64;78.97;99625.44;126681;1098;23431;-75
2020/12/11 07:07:31;;;;;;;172.20;95.10;;;;;;;0.68;78.87;99616.10;126689;1098;23383;-74
2020/12/11 07:10:00;;;;;;;133.17;66.47;;;;;;;0.73;79.12;99603.11;126680;1098;23325;-74
2020/12/11 07:12:32;;;;;;;156.45;70.08;;;;;;;0.79;79.21;99607.86;126625;1098;23536;-70
2020/12/11 07:15:15;;;;;;;134.45;64.85;;;;;;;0.85;79.35;99601.91;126759;1099;27846;-76
2020/12/11 07:17:46;;;;;;;115.08;61.00;;;;;;;0.91;78.98;99601.31;126730;1099;23401;-74
2020/12/11 07:20:14;;;;;;;105.67;56.57;;;;;;;0.95;79.08;99600.03;126742;1098;23469;-76
2020/12/11 07:22:43;;;;;;;248.03;99.20;;;;;;;0.97;78.88;99603.41;126728;1099;23394;-74
2020/12/11 07:25:11;;;;;;;131.57;65.05;;;;;;;0.98;78.86;99597.06;126702;1098;24969;-75
2020/12/11 07:27:39;;;;;;;127.50;63.45;;;;;;;0.99;78.95;99592.53;126795;1098;23366;-74
2020/12/11 07:30:07;;;;;;;143.55;65.85;;;;;;;1.00;78.94;99597.77;126708;1098;23316;-75
2020/12/11 07:32:36;;;;;;;125.47;68.30;;;;;;;1.03;79.14;99588.55;126705;1098;23393;-75
2020/12/11 07:35:08;;;;;;;110.12;62.20;;;;;;;1.06;79.09;99587.41;126751;1098;23393;-78
2020/12/11 07:37:37;;;;;;;121.07;62.83;;;;;;;1.07;79.02;99583.70;126694;1098;23348;-73
2020/12/11 07:40:13;;;;;;;129.75;67.90;;;;;;;1.10;78.95;99573.52;126708;1098;23476;-74
2020/12/11 07:42:42;;;;;;;171.28;77.35;;;;;;;1.14;79.13;99582.14;126664;1098;23501;-75
2020/12/11 07:45:35;;;;;;;127.75;62.25;;;;;;;1.15;78.92;99570.38;126563;1099;23480;-74
2020/12/11 07:48:04;;;;;;;108.92;61.08;;;;;;;1.18;79.01;99570.94;126663;1098;25402;-73
2020/12/11 07:50:33;;;;;;;107.32;59.48;;;;;;;1.17;78.94;99568.39;126695;1098;23332;-74
2020/12/11 07:53:08;;;;;;;125.87;66.93;;;;;;;1.18;78.79;99570.94;126446;1098;23338;-74
2020/12/11 07:55:36;;;;;;;133.05;64.90;;;;;;;1.19;78.93;99555.66;126680;1098;23344;-74
2020/12/11 07:58:06;;;;;;;119.90;63.85;;;;;;;1.21;78.75;99561.73;126722;1098;23340;-74
2020/12/11 08:00:36;;;;;;;107.27;59.40;;;;;;;1.26;78.73;99561.27;126620;1098;23447;-74
2020/12/11 08:03:07;;;;;;;123.42;67.37;;;;;;;1.29;78.95;99560.98;126757;1098;23333;-74
2020/12/11 08:05:37;;;;;;;128.95;65.83;;;;;;;1.30;78.96;99552.78;126398;1099;26386;-75
2020/12/11 08:08:07;;;;;;;105.97;58.15;;;;;;;1.33;78.77;99541.72;126691;1098;23533;-75
2020/12/11 08:10:42;;;;;;;145.17;70.67;;;;;;;1.38;79.01;99547.46;126684;1098;23533;-74
2020/12/11 08:13:16;;;;;;;126.57;70.53;;;;;;;1.41;78.85;99544.48;126725;1098;23341;-74
2020/12/11 08:15:45;;;;;;;123.35;65.80;;;;;;;1.47;78.90;99542.17;126690;1099;26918;-74
2020/12/11 08:18:29;;;;;;;146.18;73.52;;;;;;;1.51;78.99;99546.25;126755;1098;23321;-75
2020/12/11 08:21:00;;;;;;;113.37;59.38;;;;;;;1.59;79.13;99551.71;126696;1099;26449;-74
2020/12/11 08:23:40;;;;;;;112.65;61.68;;;;;;;1.60;78.68;99562.31;126757;1099;26529;-75
2020/12/11 08:26:19;;;;;;;106.55;57.58;;;;;;;1.60;78.80;99559.63;126718;1098;24956;-73
2020/12/11 08:29:11;;;;;;;119.97;61.10;;;;;;;1.62;78.88;99554.08;126784;1098;26356;-78
2020/12/11 08:31:43;;;;;;;137.30;71.17;;;;;;;1.64;79.01;99565.52;126721;1098;26601;-74
2020/12/11 08:34:15;;;;;;;126.92;63.73;;;;;;;1.72;78.99;99560.23;126653;1098;23369;-74
2020/12/11 08:36:46;;;;;;;107.83;56.90;;;;;;;1.75;78.73;99561.76;126742;1099;23346;-73
2020/12/11 08:39:25;;;;;;;110.05;59.85;;;;;;;1.75;78.76;99568.00;126811;1098;23533;-73
2020/12/11 08:42:11;;;;;;;119.97;64.65;;;;;;;1.76;78.74;99569.68;126693;1098;24811;-78
2020/12/11 08:50:47;;;;;;;142.65;72.92;;;;;;;1.82;78.69;99552.09;126661;1098;23209;-74
2020/12/11 08:52:49;;;;;;;145.90;74.85;;;;;;;1.91;78.89;99555.70;126639;1098;23373;-74
2020/12/11 08:55:17;;;;;;;131.43;72.75;;;;;;;2.00;79.18;99552.06;126423;1099;23384;-74
2020/12/11 08:57:49;;;;;;;119.65;62.98;;;;;;;2.06;78.84;99554.13;126759;1098;23345;-75
2020/12/11 09:00:18;;;;;;;129.57;71.05;;;;;;;2.11;79.02;99567.11;126873;1098;23379;-73
2020/12/11 09:02:46;;;;;;;134.85;75.55;;;;;;;2.12;78.79;99558.89;126812;1098;23327;-74
2020/12/11 09:05:14;;;;;;;107.92;60.98;;;;;;;2.14;78.56;99564.95;126737;1098;23336;-74
2020/12/11 09:07:43;;;;;;;125.38;78.07;;;;;;;2.15;78.55;99563.94;126569;1098;23439;-74
2020/12/11 09:10:12;;;;;;;121.80;71.53;;;;;;;2.19;78.70;99562.62;126710;1098;23324;-75
2020/12/11 09:12:40;;;;;;;105.80;60.58;;;;;;;2.20;78.57;99558.12;126729;1098;23388;-74
2020/12/11 09:15:09;;;;;;;97.80;58.00;;;;;;;2.20;78.54;99564.33;126694;1098;23304;-74
2020/12/11 09:17:37;;;;;;;100.10;55.17;;;;;;;2.21;78.59;99565.17;126733;1098;27122;-74
2020/12/11 09:20:06;;;;;;;119.42;63.63;;;;;;;2.22;78.42;99554.26;126676;1098;23363;-74
2020/12/11 09:22:35;;;;;;;120.60;64.15;;;;;;;2.21;78.48;99551.72;126785;1098;23325;-73
2020/12/11 09:25:05;;;;;;;98.45;56.98;;;;;;;2.23;78.32;99553.24;126846;1099;23390;-74
2020/12/11 09:27:36;;;;;;;105.22;60.73;;;;;;;2.23;78.40;99547.02;126858;1098;27524;-74
2020/12/11 09:30:29;;;;;;;108.80;67.72;;;;;;;2.22;78.27;99548.05;126534;1098;23462;-75
2020/12/11 09:35:26;;;;;;;110.80;64.23;;;;;;;2.22;78.30;99543.50;126621;1098;23424;-74
2020/12/11 09:37:55;;;;;;;115.42;59.08;;;;;;;2.27;78.60;99539.49;126751;1098;23439;-74
2020/12/11 09:45:51;;;;;;;91.95;54.85;;;;;;;2.42;78.69;99532.52;126796;1098;23328;-74
2020/12/11 09:48:41;;;;;;;98.58;55.67;;;;;;;2.48;78.50;99528.35;126736;1099;23445;-75
2020/12/11 09:56:30;;;;;;;94.58;55.58;;;;;;;2.49;78.30;99522.78;126556;1098;23324;-73
2020/12/11 09:59:04;;;;;;;101.92;58.00;;;;;;;2.53;78.52;99518.77;126668;1098;23406;-74
2020/12/11 10:02:02;;;;;;;113.05;66.37;;;;;;;2.60;78.24;99514.45;126638;1098;25077;-74
2020/12/11 10:04:21;;;;;;;95.80;58.17;;;;;;;2.63;78.60;99502.52;126708;1098;23397;-72
2020/12/11 10:06:50;;;;;;;98.37;59.33;;;;;;;2.68;78.53;99491.25;126712;1098;25074;-75
2020/12/11 10:09:19;;;;;;;111.90;65.10;;;;;;;2.72;78.43;99498.84;126643;1098;26405;-74
2020/12/11 10:11:51;;;;;;;96.45;60.80;;;;;;;2.75;78.12;99489.59;126647;1098;23469;-74
2020/12/11 10:14:36;;;;;;;99.13;63.03;;;;;;;2.74;77.90;99486.05;126685;1099;23550;-74
2020/12/11 10:17:05;;;;;;;95.17;56.08;;;;;;;2.80;78.06;99487.27;126647;1099;24413;-73
2020/12/11 10:19:34;;;;;;;115.22;66.53;;;;;;;2.79;77.85;99485.56;126717;1099;23325;-75
2020/12/11 10:22:03;;;;;;;108.80;61.40;;;;;;;2.86;78.30;99492.00;126629;1099;25077;-74
2020/12/11 10:24:31;;;;;;;119.65;67.75;;;;;;;2.92;78.09;99485.10;126609;1098;23366;-74
2020/12/11 10:26:59;;;;;;;104.63;64.00;;;;;;;2.89;77.73;99480.89;126679;1098;23480;-74
2020/12/11 10:29:27;;;;;;;114.47;66.77;;;;;;;2.91;77.81;99484.27;126302;1099;23328;-74
2020/12/11 10:31:56;;;;;;;213.72;108.07;;;;;;;2.95;77.92;99482.94;126679;1098;26987;-73
2020/12/11 10:34:24;;;;;;;116.30;68.72;;;;;;;3.00;77.84;99483.27;126613;1098;23421;-72
2020/12/11 10:36:52;;;;;;;102.60;62.13;;;;;;;3.03;77.67;99476.70;126692;1099;26837;-73
2020/12/11 10:39:21;;;;;;;99.72;59.13;;;;;;;3.06;77.65;99471.00;126687;1098;23404;-73
2020/12/11 10:41:49;;;;;;;95.80;59.98;;;;;;;3.07;77.37;99478.06;126734;1098;23379;-73
2020/12/11 10:44:18;;;;;;;105.92;60.80;;;;;;;3.09;77.63;99473.36;126724;1098;23533;-74
2020/12/11 10:46:49;;;;;;;101.75;62.73;;;;;;;3.15;77.99;99474.56;126730;1098;23333;-74
2020/12/11 10:49:17;;;;;;;103.13;62.20;;;;;;;3.18;77.65;99463.44;126706;1098;23396;-72
2020/12/11 10:51:47;;;;;;;108.50;65.62;;;;;;;3.25;77.66;99464.48;126657;1098;24829;-74
2020/12/11 10:54:17;;;;;;;84.65;48.92;;;;;;;3.30;77.67;99458.58;126499;1098;27079;-73
2020/12/11 10:56:46;;;;;;;91.53;55.15;;;;;;;3.29;77.16;99455.05;126656;1098;26786;-74
2020/12/11 10:59:15;;;;;;;80.90;50.17;;;;;;;3.31;77.19;99447.64;126664;1098;23469;-73
2020/12/11 11:01:43;;;;;;;89.35;53.25;;;;;;;3.32;77.20;99448.48;126739;1098;26386;-72
2020/12/11 11:04:12;;;;;;;89.55;57.70;;;;;;;3.35;76.90;99437.34;126786;1099;23382;-73
2020/12/11 11:06:54;;;;;;;91.50;58.57;;;;;;;3.42;77.12;99432.98;126690;1098;23431;-74
2020/12/11 11:12:37;;;;;;;102.02;60.45;;;;;;;3.52;77.11;99428.28;126692;1098;26411;-73
2020/12/11 11:28:05;;;;;;;109.87;63.50;;;;;;;4.02;76.39;99429.89;126735;1098;23339;-74
2020/12/11 11:30:36;;;;;;;88.27;51.63;;;;;;;4.01;76.45;99432.75;126676;1098;23391;-73
2020/12/11 11:33:04;;;;;;;96.78;55.73;;;;;;;4.02;75.76;99431.76;126588;1098;26606;-75
2020/12/11 11:35:33;;;;;;;101.85;60.58;;;;;;;4.04;75.73;99429.73;126603;1098;23346;-73
2020/12/11 11:38:05;;;;;;;96.85;58.00;;;;;;;4.05;75.93;99431.40;126748;1099;26823;-73
2020/12/11 11:40:38;;;;;;;91.30;52.67;;;;;;;4.12;76.04;99435.11;126642;1098;23399;-73
2020/12/11 11:43:07;;;;;;;112.08;63.68;;;;;;;4.16;76.22;99435.59;126669;1099;23530;-73
2020/12/11 11:45:36;;;;;;;124.50;68.57;;;;;;;4.19;76.07;99432.56;126707;1099;26846;-74
2020/12/11 11:48:08;;;;;;;122.15;65.50;;;;;;;4.20;75.67;99432.37;126626;1098;23395;-73
2020/12/11 11:53:21;;;;;;;141.12;72.22;;;;;;;4.20;75.46;99426.97;126622;1099;23661;-74
2020/12/11 11:55:49;;;;;;;131.63;74.25;;;;;;;4.22;75.40;99430.34;126753;1098;23351;-74
2020/12/11 11:58:18;;;;;;;318.17;148.45;;;;;;;4.25;75.28;99430.01;126678;1098;23340;-73
2020/12/11 12:00:46;;;;;;;147.80;77.82;;;;;;;4.27;75.70;99429.84;126751;1098;26430;-74
2020/12/11 12:03:14;;;;;;;132.37;67.65;;;;;;;4.23;75.05;99426.64;126703;1098;23332;-73
2020/12/11 12:05:47;;;;;;;119.77;71.50;;;;;;;4.18;75.07;99415.53;126689;1099;27979;-79